Terminal Aerodrome Forecast
Issued by NWS

Home | Current Version | Previous Version | Graphics & Text | Print | Product List | Glossary On
Versions: 1 2 3 4 5 6 7 8 9 10 11 12 13 14 15 16
208
FTUS43 KMPX 212320
TAFAXN
TAF
KAXN 212320Z 2200/2224 02010KT P6SM FEW250
     FM220600 09006KT P6SM SCT250
     FM221200 13011KT P6SM BKN120
     FM221800 15018G24KT P6SM OVC070=

USA.gov is the U.S. government's official web portal to all federal, state and local government web resources and services.